Time,TemperatureF,DewpointF,PressureIn,WindDirection,WindDirectionDegrees,WindSpeedMPH,WindSpeedGustMPH,Humidity,HourlyPrecipIn,Conditions,Clouds,dailyrainin,SoftwareType,DateUTC
2013-03-31 00:07:00,57.6,55.8,30.03,West,263,1.0,4.0,94,0.04,,,-99.99,FreeWX-Wi 1.01,2013-03-31 07:07:00,
2013-03-31 00:18:00,57.6,55.8,30.03,West,261,2.0,5.8,94,0.04,,,-99.99,FreeWX-Wi 1.01,2013-03-31 07:18:00,
2013-03-31 00:28:00,57.7,55.9,30.03,West,267,1.0,4.0,94,0.04,,,-99.99,FreeWX-Wi 1.01,2013-03-31 07:28:00,
2013-03-31 00:38:00,57.7,56.3,30.03,West,261,1.0,5.8,95,0.00,,,-99.99,FreeWX-Wi 1.01,2013-03-31 07:38:00,
2013-03-31 00:48:00,57.7,55.9,30.03,West,260,1.0,4.5,94,0.00,,,-99.99,FreeWX-Wi 1.01,2013-03-31 07:48:00,
2013-03-31 00:58:00,57.6,55.8,30.00,WSW,256,1.0,5.4,94,0.00,,,-99.99,FreeWX-Wi 1.01,2013-03-31 07:58:00,
2013-03-31 01:08:00,57.6,55.8,30.00,North,-999,0.0,4.0,94,0.00,,,-99.99,FreeWX-Wi 1.01,2013-03-31 08:08:00,
2013-03-31 01:18:00,57.2,55.4,30.00,North,-999,0.0,4.9,94,0.00,,,-99.99,FreeWX-Wi 1.01,2013-03-31 08:18:00,
2013-03-31 01:28:00,57.0,55.2,30.00,NW,315,1.0,5.4,94,0.00,,,-99.99,FreeWX-Wi 1.01,2013-03-31 08:28:00,
2013-03-31 01:38:00,57.0,55.0,30.00,West,273,1.0,4.0,93,0.00,,,-99.99,FreeWX-Wi 1.01,2013-03-31 08:38:00,
2013-03-31 01:48:00,57.0,55.0,30.00,North,-999,0.0,0.0,93,0.04,,,-99.99,FreeWX-Wi 1.01,2013-03-31 08:48:00,
2013-03-31 01:58:00,57.0,55.0,30.03,North,-999,0.0,4.5,93,0.04,,,-99.99,FreeWX-Wi 1.01,2013-03-31 08:58:00,
2013-03-31 02:08:00,57.0,55.0,30.03,North,-999,0.0,4.9,93,0.04,,,-99.99,FreeWX-Wi 1.01,2013-03-31 09:08:00,
2013-03-31 02:18:00,57.2,55.2,30.03,North,-999,0.0,4.0,93,0.04,,,-99.99,FreeWX-Wi 1.01,2013-03-31 09:18:00,
2013-03-31 02:28:00,57.2,55.2,30.03,North,-999,0.0,3.1,93,0.04,,,-99.99,FreeWX-Wi 1.01,2013-03-31 09:28:00,
2013-03-31 02:38:00,57.2,55.2,30.03,North,-999,0.0,5.4,93,0.04,,,-99.99,FreeWX-Wi 1.01,2013-03-31 09:38:00,
2013-03-31 02:48:00,57.0,55.0,30.03,North,-999,0.0,3.1,93,0.00,,,-99.99,FreeWX-Wi 1.01,2013-03-31 09:48:00,
2013-03-31 02:58:00,56.8,54.9,30.03,North,-999,0.0,4.9,93,0.00,,,-99.99,FreeWX-Wi 1.01,2013-03-31 09:58:00,
2013-03-31 03:08:00,56.8,54.9,30.03,WSW,252,1.0,5.8,93,0.00,,,-99.99,FreeWX-Wi 1.01,2013-03-31 10:08:00,
2013-03-31 03:18:00,56.8,54.9,30.03,WSW,237,1.0,4.0,93,0.00,,,-99.99,FreeWX-Wi 1.01,2013-03-31 10:18:00,
2013-03-31 03:28:00,56.7,54.3,30.03,SW,226,1.0,5.4,92,0.00,,,-99.99,FreeWX-Wi 1.01,2013-03-31 10:28:00,
2013-03-31 03:38:00,56.3,54.0,30.03,WSW,242,1.0,2.2,92,0.00,,,-99.99,FreeWX-Wi 1.01,2013-03-31 10:38:00,
2013-03-31 03:48:00,56.1,53.8,30.03,North,-999,0.0,2.2,92,0.00,,,-99.99,FreeWX-Wi 1.01,2013-03-31 10:48:00,
2013-03-31 03:58:00,55.9,53.6,30.03,North,-999,0.0,0.0,92,0.00,,,-99.99,FreeWX-Wi 1.01,2013-03-31 10:58:00,
2013-03-31 04:08:00,55.8,53.4,30.03,North,-999,0.0,0.0,92,0.00,,,-99.99,FreeWX-Wi 1.01,2013-03-31 11:08:00,
2013-03-31 04:18:00,55.8,53.4,30.03,North,-999,0.0,0.0,92,0.00,,,-99.99,FreeWX-Wi 1.01,2013-03-31 11:18:00,
2013-03-31 04:28:00,55.6,53.2,30.03,North,-999,0.0,0.0,92,0.00,,,-99.99,FreeWX-Wi 1.01,2013-03-31 11:28:00,
2013-03-31 04:38:00,55.2,52.9,30.03,North,-999,0.0,0.0,92,0.00,,,-99.99,FreeWX-Wi 1.01,2013-03-31 11:38:00,
2013-03-31 04:48:00,55.0,52.7,30.03,North,-999,0.0,0.0,92,0.00,,,-99.99,FreeWX-Wi 1.01,2013-03-31 11:48:00,
2013-03-31 04:58:00,54.9,52.5,30.03,North,-999,0.0,0.0,92,0.00,,,-99.99,FreeWX-Wi 1.01,2013-03-31 11:58:00,
2013-03-31 05:08:00,54.9,52.5,30.03,North,-999,0.0,0.0,92,0.00,,,-99.99,FreeWX-Wi 1.01,2013-03-31 12:08:00,
2013-03-31 05:18:00,54.7,52.3,30.03,North,-999,0.0,0.0,92,0.00,,,-99.99,FreeWX-Wi 1.01,2013-03-31 12:18:00,
2013-03-31 05:28:00,54.7,52.3,30.03,North,-999,0.0,0.0,92,0.00,,,-99.99,FreeWX-Wi 1.01,2013-03-31 12:28:00,
2013-03-31 05:38:00,54.9,52.5,30.03,North,-999,0.0,0.0,92,0.00,,,-99.99,FreeWX-Wi 1.01,2013-03-31 12:38:00,
2013-03-31 05:48:00,54.9,52.5,30.03,North,-999,0.0,0.0,92,0.00,,,-99.99,FreeWX-Wi 1.01,2013-03-31 12:48:00,
2013-03-31 05:58:00,55.0,52.7,30.06,North,-999,0.0,0.0,92,0.00,,,-99.99,FreeWX-Wi 1.01,2013-03-31 12:58:00,
2013-03-31 06:08:00,55.4,53.1,30.06,North,-999,0.0,0.0,92,0.00,,,-99.99,FreeWX-Wi 1.01,2013-03-31 13:08:00,
2013-03-31 06:18:00,55.4,53.1,30.06,North,-999,0.0,0.0,92,0.00,,,-99.99,FreeWX-Wi 1.01,2013-03-31 13:18:00,
2013-03-31 06:28:00,55.4,53.1,30.03,North,-999,0.0,0.0,92,0.00,,,-99.99,FreeWX-Wi 1.01,2013-03-31 13:28:00,
2013-03-31 06:38:00,55.4,53.1,30.06,North,-999,0.0,0.0,92,0.00,,,-99.99,FreeWX-Wi 1.01,2013-03-31 13:38:00,
2013-03-31 06:48:00,55.6,53.2,30.06,North,-999,0.0,0.0,92,0.00,,,-99.99,FreeWX-Wi 1.01,2013-03-31 13:48:00,
2013-03-31 06:58:00,55.6,53.2,30.06,North,-999,0.0,0.0,92,0.00,,,-99.99,FreeWX-Wi 1.01,2013-03-31 13:58:00,
2013-03-31 07:08:00,55.6,53.2,30.06,North,-999,0.0,0.0,92,0.00,,,-99.99,FreeWX-Wi 1.01,2013-03-31 14:08:00,
2013-03-31 07:18:00,55.6,53.2,30.06,North,-999,0.0,0.0,92,0.00,,,-99.99,FreeWX-Wi 1.01,2013-03-31 14:18:00,
2013-03-31 07:28:00,55.8,53.4,30.06,North,-999,0.0,0.0,92,0.00,,,-99.99,FreeWX-Wi 1.01,2013-03-31 14:28:00,
2013-03-31 07:38:00,55.9,53.6,30.06,North,-999,0.0,0.0,92,0.00,,,-99.99,FreeWX-Wi 1.01,2013-03-31 14:38:00,
2013-03-31 07:48:00,56.1,53.8,30.06,North,-999,0.0,0.0,92,0.00,,,-99.99,FreeWX-Wi 1.01,2013-03-31 14:48:00,
2013-03-31 07:58:00,56.1,53.8,30.06,North,-999,0.0,0.0,92,0.00,,,-99.99,FreeWX-Wi 1.01,2013-03-31 14:58:00,
2013-03-31 08:08:00,56.3,54.0,30.06,North,-999,0.0,0.0,92,0.00,,,-99.99,FreeWX-Wi 1.01,2013-03-31 15:08:00,
2013-03-31 08:18:00,56.7,54.7,30.06,North,-999,0.0,0.0,93,0.00,,,-99.99,FreeWX-Wi 1.01,2013-03-31 15:18:00,
2013-03-31 08:28:00,57.0,55.0,30.06,North,-999,0.0,0.0,93,0.00,,,-99.99,FreeWX-Wi 1.01,2013-03-31 15:28:00,
2013-03-31 08:38:00,57.4,55.0,30.06,North,-999,0.0,4.0,92,0.00,,,-99.99,FreeWX-Wi 1.01,2013-03-31 15:38:00,
2013-03-31 08:48:00,57.9,55.9,30.06,North,-999,0.0,0.0,93,0.00,,,-99.99,FreeWX-Wi 1.01,2013-03-31 15:48:00,
2013-03-31 08:58:00,58.5,56.5,30.06,North,-999,0.0,3.6,93,0.00,,,-99.99,FreeWX-Wi 1.01,2013-03-31 15:58:00,
2013-03-31 09:08:00,58.8,56.5,30.06,North,-999,0.0,2.7,92,0.00,,,-99.99,FreeWX-Wi 1.01,2013-03-31 16:08:00,
2013-03-31 09:18:00,59.7,57.4,30.06,North,-999,0.0,4.0,92,0.00,,,-99.99,FreeWX-Wi 1.01,2013-03-31 16:18:00,
2013-03-31 09:28:00,60.3,57.6,30.06,North,-999,0.0,4.0,91,0.00,,,-99.99,FreeWX-Wi 1.01,2013-03-31 16:28:00,
2013-03-31 09:38:00,60.3,57.4,30.06,North,-999,0.0,5.4,90,0.00,,,-99.99,FreeWX-Wi 1.01,2013-03-31 16:38:00,
2013-03-31 09:48:00,60.6,57.4,30.06,North,-999,0.0,4.5,89,0.00,,,-99.99,FreeWX-Wi 1.01,2013-03-31 16:48:00,
2013-03-31 09:58:00,61.2,57.6,30.06,SW,216,1.0,6.3,88,0.00,,,-99.99,FreeWX-Wi 1.01,2013-03-31 16:58:00,
2013-03-31 10:08:00,61.5,56.7,30.06,SW,217,1.0,6.3,84,0.00,,,-99.99,FreeWX-Wi 1.01,2013-03-31 17:08:00,
2013-03-31 10:18:00,62.2,56.7,30.06,SSW,206,2.0,8.3,82,0.00,,,-99.99,FreeWX-Wi 1.01,2013-03-31 17:18:00,
2013-03-31 10:28:00,62.6,54.9,30.06,SSW,206,2.0,8.1,76,0.00,,,-99.99,FreeWX-Wi 1.01,2013-03-31 17:28:00,
2013-03-31 10:38:00,62.6,52.3,30.06,SSW,206,2.0,5.4,69,0.00,,,-99.99,FreeWX-Wi 1.01,2013-03-31 17:38:00,
2013-03-31 10:48:00,63.3,50.9,30.06,SSW,210,2.0,5.4,64,0.00,,,-99.99,FreeWX-Wi 1.01,2013-03-31 17:48:00,
2013-03-31 10:58:00,64.0,50.7,30.06,SW,219,2.0,5.8,62,0.00,,,-99.99,FreeWX-Wi 1.01,2013-03-31 17:58:00,
2013-03-31 11:08:00,64.4,49.3,30.06,SW,221,1.0,4.0,58,0.00,,,-99.99,FreeWX-Wi 1.01,2013-03-31 18:08:00,
2013-03-31 11:18:00,64.8,49.1,30.06,SW,222,2.0,6.3,57,0.00,,,-99.99,FreeWX-Wi 1.01,2013-03-31 18:18:00,
2013-03-31 11:28:00,64.8,48.2,30.06,SSW,208,2.0,4.9,55,0.00,,,-99.99,FreeWX-Wi 1.01,2013-03-31 18:28:00,
2013-03-31 11:38:00,64.6,47.5,30.06,SSW,193,2.0,8.3,54,0.00,,,-99.99,FreeWX-Wi 1.01,2013-03-31 18:38:00,
2013-03-31 11:48:00,64.9,49.8,30.06,South,188,2.0,5.4,58,0.00,,,-99.99,FreeWX-Wi 1.01,2013-03-31 18:48:00,
2013-03-31 11:58:00,65.8,49.3,30.06,South,191,2.0,6.3,55,0.00,,,-99.99,FreeWX-Wi 1.01,2013-03-31 18:58:00,
2013-03-31 12:08:00,65.5,48.4,30.06,SSW,196,2.0,8.1,54,0.00,,,-99.99,FreeWX-Wi 1.01,2013-03-31 19:08:00,
2013-03-31 12:18:00,64.8,50.9,30.06,SSW,202,2.0,4.0,61,0.00,,,-99.99,FreeWX-Wi 1.01,2013-03-31 19:18:00,
2013-03-31 12:29:00,64.2,50.5,30.06,SSW,197,1.0,3.6,61,0.00,,,-99.99,FreeWX-Wi 1.01,2013-03-31 19:29:00,
2013-03-31 12:39:00,63.9,50.2,30.06,North,-999,0.0,4.9,61,0.00,,,-99.99,FreeWX-Wi 1.01,2013-03-31 19:39:00,
2013-03-31 12:49:00,64.0,51.3,30.06,North,-999,0.0,3.1,63,0.00,,,-99.99,FreeWX-Wi 1.01,2013-03-31 19:49:00,
2013-03-31 12:59:00,63.3,52.9,30.06,SW,225,1.0,6.3,69,0.00,,,-99.99,FreeWX-Wi 1.01,2013-03-31 19:59:00,
2013-03-31 13:09:00,61.3,53.8,30.06,NNE,12,2.0,6.3,76,0.00,,,-99.99,FreeWX-Wi 1.01,2013-03-31 20:09:00,
2013-03-31 13:19:00,59.9,54.7,30.06,NNW,337,2.0,5.8,83,0.16,,,-99.99,FreeWX-Wi 1.01,2013-03-31 20:19:00,
2013-03-31 13:29:00,59.5,55.4,30.06,North,359,1.0,4.0,86,0.24,,,-99.99,FreeWX-Wi 1.01,2013-03-31 20:29:00,
2013-03-31 13:39:00,59.4,56.1,30.06,NNE,21,1.0,4.9,89,0.24,,,-99.99,FreeWX-Wi 1.01,2013-03-31 20:39:00,
2013-03-31 13:49:00,59.4,56.7,30.06,NE,48,1.0,4.0,91,0.24,,,-99.99,FreeWX-Wi 1.01,2013-03-31 20:49:00,
2013-03-31 13:59:00,60.1,57.7,30.03,NE,55,2.0,4.9,92,0.24,,,-99.99,FreeWX-Wi 1.01,2013-03-31 20:59:00,
2013-03-31 14:09:00,59.7,57.7,30.03,ENE,63,2.0,5.4,93,0.24,,,-99.99,FreeWX-Wi 1.01,2013-03-31 21:09:00,
2013-03-31 14:19:00,59.7,57.7,30.03,ENE,70,2.0,4.0,93,0.08,,,-99.99,FreeWX-Wi 1.01,2013-03-31 21:19:00,
2013-03-31 14:29:00,60.1,58.1,30.03,East,89,2.0,5.8,93,0.00,,,-99.99,FreeWX-Wi 1.01,2013-03-31 21:29:00,
2013-03-31 14:39:00,60.4,58.5,30.03,East,94,2.0,4.0,93,0.00,,,-99.99,FreeWX-Wi 1.01,2013-03-31 21:39:00,
2013-03-31 14:49:00,60.6,58.6,30.03,East,93,2.0,4.0,93,0.00,,,-99.99,FreeWX-Wi 1.01,2013-03-31 21:49:00,
2013-03-31 14:59:00,59.7,57.4,30.03,East,80,1.0,4.9,92,0.16,,,-99.99,FreeWX-Wi 1.01,2013-03-31 21:59:00,
2013-03-31 15:09:00,58.8,56.5,30.03,ENE,68,1.0,0.0,92,0.16,,,-99.99,FreeWX-Wi 1.01,2013-03-31 22:09:00,
2013-03-31 15:19:00,59.2,57.2,30.03,North,-999,0.0,0.0,93,0.16,,,-99.99,FreeWX-Wi 1.01,2013-03-31 22:19:00,
2013-03-31 15:29:00,60.1,58.1,30.03,North,-999,0.0,0.0,93,0.16,,,-99.99,FreeWX-Wi 1.01,2013-03-31 22:29:00,
2013-03-31 15:39:00,59.9,57.9,30.03,North,-999,0.0,6.3,93,0.16,,,-99.99,FreeWX-Wi 1.01,2013-03-31 22:39:00,
2013-03-31 15:49:00,59.0,56.1,30.03,WNW,283,1.0,7.6,90,0.16,,,-99.99,FreeWX-Wi 1.01,2013-03-31 22:49:00,
2013-03-31 15:59:00,59.2,56.3,30.03,West,261,2.0,5.4,90,0.00,,,-99.99,FreeWX-Wi 1.01,2013-03-31 22:59:00,
2013-03-31 16:09:00,60.6,55.8,30.00,WSW,248,2.0,5.8,84,0.00,,,-99.99,FreeWX-Wi 1.01,2013-03-31 23:09:00,
2013-03-31 16:19:00,61.2,51.3,30.00,WSW,249,3.0,7.6,70,0.00,,,-99.99,FreeWX-Wi 1.01,2013-03-31 23:19:00,
2013-03-31 16:29:00,61.5,50.5,30.00,WSW,247,3.0,6.3,67,0.00,,,-99.99,FreeWX-Wi 1.01,2013-03-31 23:29:00,
2013-03-31 16:39:00,61.2,50.2,30.00,WSW,254,3.0,9.6,67,0.00,,,-99.99,FreeWX-Wi 1.01,2013-03-31 23:39:00,
2013-03-31 16:49:00,61.0,50.0,30.00,WSW,251,3.0,6.3,67,0.00,,,-99.99,FreeWX-Wi 1.01,2013-03-31 23:49:00,
2013-03-31 16:59:00,61.2,50.5,30.00,WSW,254,3.0,7.2,68,0.00,,,-99.99,FreeWX-Wi 1.01,2013-03-31 23:59:00,
2013-03-31 17:09:00,61.3,51.4,30.00,WSW,244,3.0,5.8,70,0.00,,,-99.99,FreeWX-Wi 1.01,2013-04-01 00:09:00,
2013-03-31 17:19:00,61.3,51.1,30.00,WSW,239,2.0,5.4,69,0.00,,,-99.99,FreeWX-Wi 1.01,2013-04-01 00:19:00,
2013-03-31 17:29:00,61.2,50.5,30.03,SW,234,2.0,5.8,68,0.00,,,-99.99,FreeWX-Wi 1.01,2013-04-01 00:29:00,
2013-03-31 17:39:00,61.3,50.7,30.00,WSW,243,2.0,6.3,68,0.00,,,-99.99,FreeWX-Wi 1.01,2013-04-01 00:39:00,
2013-03-31 17:49:00,61.3,50.4,30.00,WSW,246,2.0,5.4,67,0.00,,,-99.99,FreeWX-Wi 1.01,2013-04-01 00:49:00,
2013-03-31 17:59:00,61.2,50.2,30.00,WSW,241,2.0,6.3,67,0.00,,,-99.99,FreeWX-Wi 1.01,2013-04-01 00:59:00,
2013-03-31 18:09:00,61.2,50.2,30.00,WSW,237,3.0,7.6,67,0.00,,,-99.99,FreeWX-Wi 1.01,2013-04-01 01:09:00,
2013-03-31 18:19:00,60.8,49.8,30.00,WSW,239,3.0,8.1,67,0.00,,,-99.99,FreeWX-Wi 1.01,2013-04-01 01:19:00,
2013-03-31 18:29:00,60.6,50.4,30.03,WSW,237,3.0,5.8,69,0.00,,,-99.99,FreeWX-Wi 1.01,2013-04-01 01:29:00,
2013-03-31 18:39:00,60.6,50.7,30.03,WSW,237,3.0,5.8,70,0.00,,,-99.99,FreeWX-Wi 1.01,2013-04-01 01:39:00,
2013-03-31 18:49:00,60.4,50.5,30.03,WSW,239,2.0,4.0,70,0.00,,,-99.99,FreeWX-Wi 1.01,2013-04-01 01:49:00,
2013-03-31 18:59:00,60.3,50.9,30.03,WSW,239,2.0,6.3,71,0.00,,,-99.99,FreeWX-Wi 1.01,2013-04-01 01:59:00,
2013-03-31 19:09:00,60.1,51.1,30.03,WSW,245,2.0,4.0,72,0.00,,,-99.99,FreeWX-Wi 1.01,2013-04-01 02:09:00,
2013-03-31 19:19:00,59.7,51.1,30.03,West,267,2.0,4.9,73,0.00,,,-99.99,FreeWX-Wi 1.01,2013-04-01 02:19:00,
2013-03-31 19:29:00,59.2,50.9,30.03,West,272,2.0,6.3,74,0.00,,,-99.99,FreeWX-Wi 1.01,2013-04-01 02:29:00,
2013-03-31 19:39:00,59.0,50.7,30.03,West,272,2.0,4.9,74,0.00,,,-99.99,FreeWX-Wi 1.01,2013-04-01 02:39:00,
2013-03-31 19:49:00,58.8,50.9,30.03,West,275,1.0,4.0,75,0.00,,,-99.99,FreeWX-Wi 1.01,2013-04-01 02:49:00,
2013-03-31 19:59:00,59.4,51.8,30.03,North,-999,0.0,0.0,76,0.00,,,-99.99,FreeWX-Wi 1.01,2013-04-01 02:59:00,
2013-03-31 20:09:00,59.2,51.6,30.03,North,-999,0.0,5.4,76,0.00,,,-99.99,FreeWX-Wi 1.01,2013-04-01 03:09:00,
2013-03-31 20:19:00,58.6,51.4,30.03,North,-999,0.0,6.3,77,0.00,,,-99.99,FreeWX-Wi 1.01,2013-04-01 03:19:00,
2013-03-31 20:29:00,58.5,51.6,30.03,West,265,1.0,5.4,78,0.00,,,-99.99,FreeWX-Wi 1.01,2013-04-01 03:29:00,
2013-03-31 20:39:00,58.5,52.0,30.03,West,265,1.0,3.6,79,0.00,,,-99.99,FreeWX-Wi 1.01,2013-04-01 03:39:00,
2013-03-31 20:49:00,58.3,51.8,30.03,North,-999,0.0,4.0,79,0.00,,,-99.99,FreeWX-Wi 1.01,2013-04-01 03:49:00,
2013-03-31 20:59:00,58.3,52.2,30.03,WSW,252,1.0,4.0,80,0.00,,,-99.99,FreeWX-Wi 1.01,2013-04-01 03:59:00,
2013-03-31 21:09:00,58.3,52.2,30.03,WSW,240,1.0,4.9,80,0.00,,,-99.99,FreeWX-Wi 1.01,2013-04-01 04:09:00,
2013-03-31 21:19:00,58.1,52.0,30.03,WSW,242,1.0,3.6,80,0.00,,,-99.99,FreeWX-Wi 1.01,2013-04-01 04:19:00,
2013-03-31 21:29:00,58.1,52.0,30.03,North,-999,0.0,3.6,80,0.00,,,-99.99,FreeWX-Wi 1.01,2013-04-01 04:29:00,
2013-03-31 21:39:00,58.1,52.0,30.03,North,-999,0.0,4.0,80,0.00,,,-99.99,FreeWX-Wi 1.01,2013-04-01 04:39:00,
2013-03-31 21:49:00,57.9,51.8,30.03,North,-999,0.0,3.6,80,0.00,,,-99.99,FreeWX-Wi 1.01,2013-04-01 04:49:00,
2013-03-31 21:59:00,57.9,51.8,30.03,North,-999,0.0,3.6,80,0.00,,,-99.99,FreeWX-Wi 1.01,2013-04-01 04:59:00,
2013-03-31 22:09:00,58.8,53.1,30.06,North,-999,0.0,0.0,81,0.00,,,-99.99,FreeWX-Wi 1.01,2013-04-01 05:09:00,
2013-03-31 22:19:00,58.8,53.1,30.06,North,-999,0.0,0.0,81,0.00,,,-99.99,FreeWX-Wi 1.01,2013-04-01 05:19:00,
2013-03-31 22:29:00,58.6,53.2,30.06,North,-999,0.0,0.0,82,0.00,,,-99.99,FreeWX-Wi 1.01,2013-04-01 05:29:00,
2013-03-31 22:39:00,58.1,52.7,30.06,North,-999,0.0,3.6,82,0.00,,,-99.99,FreeWX-Wi 1.01,2013-04-01 05:39:00,
2013-03-31 22:49:00,57.9,52.7,30.06,North,-999,0.0,4.0,83,0.00,,,-99.99,FreeWX-Wi 1.01,2013-04-01 05:49:00,
2013-03-31 22:59:00,57.9,52.7,30.06,North,-999,0.0,2.7,83,0.00,,,-99.99,FreeWX-Wi 1.01,2013-04-01 05:59:00,
2013-03-31 23:09:00,57.7,52.9,30.06,North,-999,0.0,3.1,84,0.00,,,-99.99,FreeWX-Wi 1.01,2013-04-01 06:09:00,
2013-03-31 23:19:00,57.7,52.9,30.06,North,-999,0.0,4.0,84,0.00,,,-99.99,FreeWX-Wi 1.01,2013-04-01 06:19:00,
2013-03-31 23:29:00,57.7,52.9,30.06,North,-999,0.0,0.0,84,0.00,,,-99.99,FreeWX-Wi 1.01,2013-04-01 06:29:00,
2013-03-31 23:39:00,57.7,52.9,30.06,North,-999,0.0,2.7,84,0.00,,,-99.99,FreeWX-Wi 1.01,2013-04-01 06:39:00,
2013-03-31 23:49:00,57.6,52.7,30.06,North,-999,0.0,0.0,84,0.00,,,-99.99,FreeWX-Wi 1.01,2013-04-01 06:49:00,
2013-03-31 23:59:00,57.4,52.5,30.06,North,-999,0.0,3.6,84,0.00,,,-99.99,FreeWX-Wi 1.01,2013-04-01 06:59:00,